Time;durP1;ratioP1;P1;durP2;ratioP2;P2;SDS_P1;SDS_P2;PMS_P1;PMS_P2;Temp;Humidity;BMP_temperature;BMP_pressure;BME280_temperature;BME280_humidity;BME280_pressure;Samples;Min_cycle;Max_cycle;Signal;HPM_P1;HPM_P2
2022/12/10 00:01:21;;;;;;;;;;;;;;;;;;5073578;28;19935;-53
2022/12/10 00:03:47;;;;;;;;;;;;;;;;;;5092179;28;19908;-53
2022/12/10 00:06:13;;;;;;;;;;;;;;;;;;5092171;28;19908;-54
2022/12/10 00:08:39;;;;;;;;;;;;;;;;;;5092018;28;19908;-52
2022/12/10 00:11:05;;;;;;;;;;;;;;;;;;5092160;28;19908;-52
2022/12/10 00:13:31;;;;;;;;;;;;;;;;;;5092224;28;20395;-54
2022/12/10 00:15:56;;;;;;;;;;;;;;;;;;5092082;28;19920;-57
2022/12/10 00:18:22;;;;;;;;;;;;;;;;;;5091968;28;20345;-57
2022/12/10 00:20:48;;;;;;;;;;;;;;;;;;5092355;28;19961;-52
2022/12/10 00:23:14;;;;;;;;;;;;;;;;;;5096268;28;19908;-52
2022/12/10 00:25:40;;;;;;;;;;;;;;;;;;5076932;28;19909;-53
2022/12/10 00:28:06;;;;;;;;;;;;;;;;;;5075999;28;19912;-55
2022/12/10 00:30:32;;;;;;;;;;;;;;;;;;5075039;28;20316;-54
2022/12/10 00:32:58;;;;;;;;;;;;;;;;;;5074267;28;19921;-52
2022/12/10 00:35:24;;;;;;;;;;;;;;;;;;5073700;28;19912;-52
2022/12/10 00:37:50;;;;;;;;;;;;;;;;;;5072714;28;19962;-54
2022/12/10 00:40:16;;;;;;;;;;;;;;;;;;5070023;28;19913;-56
2022/12/10 00:42:41;;;;;;;;;;;;;;;;;;5075125;28;20300;-53
2022/12/10 00:45:07;;;;;;;;;;;;;;;;;;5074773;28;19913;-52
2022/12/10 00:47:33;;;;;;;;;;;;;;;;;;5069936;28;19917;-54
2022/12/10 00:49:59;;;;;;;;;;;;;;;;;;5055341;28;19920;-54
2022/12/10 00:52:25;;;;;;;;;;;;;;;;;;5056532;28;19954;-57
2022/12/10 00:54:51;;;;;;;;;;;;;;;;;;5056469;28;20347;-58
2022/12/10 00:57:17;;;;;;;;;;;;;;;;;;5055302;28;19921;-53
2022/12/10 00:59:43;;;;;;;;;;;;;;;;;;5073534;28;19909;-52
2022/12/10 01:02:09;;;;;;;;;;;;;;;;;;5062152;28;19913;-52
2022/12/10 01:04:34;;;;;;;;;;;;;;;;;;5055137;28;20308;-52
2022/12/10 01:07:00;;;;;;;;;;;;;;;;;;5055033;28;20373;-54
2022/12/10 01:09:26;;;;;;;;;;;;;;;;;;5069401;28;19919;-54
2022/12/10 01:11:52;;;;;;;;;;;;;;;;;;5074967;28;19919;-53
2022/12/10 01:14:18;;;;;;;;;;;;;;;;;;5074738;28;20280;-53
2022/12/10 01:16:44;;;;;;;;;;;;;;;;;;5068453;28;19916;-52
2022/12/10 01:19:10;;;;;;;;;;;;;;;;;;5072771;28;19913;-55
2022/12/10 01:21:36;;;;;;;;;;;;;;;;;;5074309;28;19908;-54
2022/12/10 01:24:02;;;;;;;;;;;;;;;;;;5073277;28;19919;-55
2022/12/10 01:26:28;;;;;;;;;;;;;;;;;;5071139;28;19954;-56
2022/12/10 01:28:54;;;;;;;;;;;;;;;;;;5056933;28;19932;-56
2022/12/10 01:31:19;;;;;;;;;;;;;;;;;;5065160;28;19909;-54
2022/12/10 01:33:45;;;;;;;;;;;;;;;;;;5058424;28;20278;-53
2022/12/10 01:36:11;;;;;;;;;;;;;;;;;;5080376;28;19908;-52
2022/12/10 01:38:37;;;;;;;;;;;;;;;;;;5076651;28;19908;-52
2022/12/10 01:41:03;;;;;;;;;;;;;;;;;;5057123;28;20403;-52
2022/12/10 01:43:29;;;;;;;;;;;;;;;;;;5074666;28;20007;-52
2022/12/10 01:45:55;;;;;;;;;;;;;;;;;;5074381;28;20069;-52
2022/12/10 01:48:21;;;;;;;;;;;;;;;;;;5074305;28;20326;-53
2022/12/10 01:50:47;;;;;;;;;;;;;;;;;;5074402;28;19958;-52
2022/12/10 01:53:13;;;;;;;;;;;;;;;;;;5094061;28;19953;-52
2022/12/10 01:55:38;;;;;;;;;;;;;;;;;;5094581;28;19908;-55
2022/12/10 01:58:04;;;;;;;;;;;;;;;;;;5094453;28;20391;-52
2022/12/10 02:00:30;;;;;;;;;;;;;;;;;;5094312;28;20361;-56
2022/12/10 02:02:56;;;;;;;;;;;;;;;;;;5094390;28;19912;-58
2022/12/10 02:05:22;;;;;;;;;;;;;;;;;;5094313;28;19908;-55
2022/12/10 02:07:48;;;;;;;;;;;;;;;;;;5094374;28;19951;-53
2022/12/10 02:10:14;;;;;;;;;;;;;;;;;;5094149;28;19908;-53
2022/12/10 02:12:40;;;;;;;;;;;;;;;;;;5094303;28;19961;-52
2022/12/10 02:15:06;;;;;;;;;;;;;;;;;;5094168;28;20413;-55
2022/12/10 02:17:32;;;;;;;;;;;;;;;;;;5094277;28;19966;-54
2022/12/10 02:19:57;;;;;;;;;;;;;;;;;;5093945;28;19916;-52
2022/12/10 02:22:23;;;;;;;;;;;;;;;;;;5094073;28;20287;-52
2022/12/10 02:24:49;;;;;;;;;;;;;;;;;;5094120;28;20003;-53
2022/12/10 02:27:15;;;;;;;;;;;;;;;;;;5093927;28;19908;-53
2022/12/10 02:29:41;;;;;;;;;;;;;;;;;;5074503;28;19909;-52
2022/12/10 02:32:07;;;;;;;;;;;;;;;;;;5073642;28;20391;-53
2022/12/10 02:34:33;;;;;;;;;;;;;;;;;;5072033;28;19931;-54
2022/12/10 02:36:59;;;;;;;;;;;;;;;;;;5077030;28;19912;-56
2022/12/10 02:39:25;;;;;;;;;;;;;;;;;;5093731;28;19908;-55
2022/12/10 02:41:51;;;;;;;;;;;;;;;;;;5080612;28;19908;-52
2022/12/10 02:44:17;;;;;;;;;;;;;;;;;;5072815;28;19920;-54
2022/12/10 02:46:43;;;;;;;;;;;;;;;;;;5073134;28;19933;-53
2022/12/10 02:49:08;;;;;;;;;;;;;;;;;;5073073;28;19909;-54
2022/12/10 02:51:34;;;;;;;;;;;;;;;;;;5055290;28;20331;-52
2022/12/10 02:54:00;;;;;;;;;;;;;;;;;;5068018;28;19912;-54
2022/12/10 02:56:26;;;;;;;;;;;;;;;;;;5093258;28;19916;-52
2022/12/10 02:58:52;;;;;;;;;;;;;;;;;;5093138;28;19915;-55
2022/12/10 03:01:19;;;;;;;;;;;;;;;;;;5093284;28;20280;-53
2022/12/10 03:03:44;;;;;;;;;;;;;;;;;;5093258;28;19942;-52
2022/12/10 03:06:11;;;;;;;;;;;;;;;;;;5093156;28;19944;-53
2022/12/10 03:08:37;;;;;;;;;;;;;;;;;;5092959;28;20015;-53
2022/12/10 03:11:03;;;;;;;;;;;;;;;;;;5093119;28;20006;-54
2022/12/10 03:13:29;;;;;;;;;;;;;;;;;;5074905;28;20003;-55
2022/12/10 03:15:55;;;;;;;;;;;;;;;;;;5092941;28;20455;-53
2022/12/10 03:18:21;;;;;;;;;;;;;;;;;;5092729;28;19924;-53
2022/12/10 03:20:46;;;;;;;;;;;;;;;;;;5093096;28;20049;-53
2022/12/10 03:23:12;;;;;;;;;;;;;;;;;;5092890;28;19999;-53
2022/12/10 03:25:38;;;;;;;;;;;;;;;;;;5092830;28;19915;-55
2022/12/10 03:28:04;;;;;;;;;;;;;;;;;;5092737;28;19916;-54
2022/12/10 03:30:30;;;;;;;;;;;;;;;;;;5079799;28;19931;-53
2022/12/10 03:32:56;;;;;;;;;;;;;;;;;;5072446;28;20308;-55
2022/12/10 03:35:22;;;;;;;;;;;;;;;;;;5054406;28;19908;-56
2022/12/10 03:37:49;;;;;;;;;;;;;;;;;;5072466;28;19912;-53
2022/12/10 03:40:15;;;;;;;;;;;;;;;;;;5072346;28;19995;-52
2022/12/10 03:42:41;;;;;;;;;;;;;;;;;;5072418;28;19999;-53
2022/12/10 03:45:07;;;;;;;;;;;;;;;;;;5049618;28;19970;-55
2022/12/10 03:47:33;;;;;;;;;;;;;;;;;;5053275;28;19959;-53
2022/12/10 03:49:59;;;;;;;;;;;;;;;;;;5038559;28;19956;-53
2022/12/10 03:52:25;;;;;;;;;;;;;;;;;;5056944;28;19979;-55
2022/12/10 03:54:51;;;;;;;;;;;;;;;;;;5063471;28;19959;-55
2022/12/10 03:57:17;;;;;;;;;;;;;;;;;;5050046;28;20396;-56
2022/12/10 03:59:42;;;;;;;;;;;;;;;;;;5056538;28;19908;-53
2022/12/10 04:02:10;;;;;;;;;;;;;;;;;;5055453;28;19923;-56
2022/12/10 04:04:36;;;;;;;;;;;;;;;;;;5069573;28;20396;-54
2022/12/10 04:07:02;;;;;;;;;;;;;;;;;;5071703;28;19913;-54
2022/12/10 04:09:28;;;;;;;;;;;;;;;;;;5070658;28;19908;-53
2022/12/10 04:11:54;;;;;;;;;;;;;;;;;;5063743;28;19919;-53
2022/12/10 04:17:04;;;;;;;;;;;;;;;;;;5073034;28;19924;-53
2022/12/10 04:19:30;;;;;;;;;;;;;;;;;;5071819;28;19909;-53
2022/12/10 04:27:25;;;;;;;;;;;;;;;;;;5057797;28;19932;-53
2022/12/10 04:29:51;;;;;;;;;;;;;;;;;;5052001;28;20357;-57
2022/12/10 04:32:17;;;;;;;;;;;;;;;;;;5069828;28;19919;-53
2022/12/10 04:34:43;;;;;;;;;;;;;;;;;;5069872;28;19913;-54
2022/12/10 04:37:10;;;;;;;;;;;;;;;;;;5050652;28;19920;-56
2022/12/10 04:39:36;;;;;;;;;;;;;;;;;;5063325;28;20293;-53
2022/12/10 04:42:02;;;;;;;;;;;;;;;;;;5064510;28;19930;-52
2022/12/10 04:44:28;;;;;;;;;;;;;;;;;;5068790;28;19913;-53
2022/12/10 04:46:54;;;;;;;;;;;;;;;;;;5052578;28;19916;-53
2022/12/10 04:49:20;;;;;;;;;;;;;;;;;;5046634;28;20391;-56
2022/12/10 04:51:46;;;;;;;;;;;;;;;;;;5071960;28;19986;-55
2022/12/10 04:54:12;;;;;;;;;;;;;;;;;;5071085;28;19913;-53
2022/12/10 04:56:38;;;;;;;;;;;;;;;;;;5061367;28;19917;-55
2022/12/10 04:59:04;;;;;;;;;;;;;;;;;;5062237;28;19919;-56
2022/12/10 05:01:30;;;;;;;;;;;;;;;;;;5064956;28;19915;-53
2022/12/10 05:03:56;;;;;;;;;;;;;;;;;;5058059;28;19916;-54
2022/12/10 05:06:22;;;;;;;;;;;;;;;;;;5051429;28;19916;-56
2022/12/10 05:08:48;;;;;;;;;;;;;;;;;;5054514;28;20326;-56
2022/12/10 05:11:14;;;;;;;;;;;;;;;;;;5055152;28;19916;-57
2022/12/10 05:13:40;;;;;;;;;;;;;;;;;;5055118;28;19958;-57
2022/12/10 05:16:06;;;;;;;;;;;;;;;;;;5055024;28;20395;-53
2022/12/10 05:18:32;;;;;;;;;;;;;;;;;;5054914;28;20349;-56
2022/12/10 05:20:57;;;;;;;;;;;;;;;;;;5037177;28;19963;-54
2022/12/10 05:23:29;;;;;;;;;;;;;;;;;;5055180;28;19994;-56
2022/12/10 05:25:55;;;;;;;;;;;;;;;;;;5054902;28;20015;-54
2022/12/10 05:28:21;;;;;;;;;;;;;;;;;;5036859;28;19956;-55
2022/12/10 05:30:47;;;;;;;;;;;;;;;;;;5054892;28;19948;-57
2022/12/10 05:33:13;;;;;;;;;;;;;;;;;;5054719;28;20420;-55
2022/12/10 05:35:39;;;;;;;;;;;;;;;;;;5036921;28;19908;-55
2022/12/10 05:38:05;;;;;;;;;;;;;;;;;;5036678;28;19913;-55
2022/12/10 05:40:31;;;;;;;;;;;;;;;;;;5054508;28;19909;-57
2022/12/10 05:42:57;;;;;;;;;;;;;;;;;;5054563;28;19917;-56
2022/12/10 05:47:48;;;;;;;;;;;;;;;;;;5074319;22;19975;-56
2022/12/10 05:50:14;;;;;;;;;;;;;;;;;;5073946;28;19966;-57
2022/12/10 05:52:40;;;;;;;;;;;;;;;;;;5074687;28;20502;-53
2022/12/10 05:55:06;;;;;;;;;;;;;;;;;;5074562;28;19951;-54
2022/12/10 05:57:32;;;;;;;;;;;;;;;;;;5074267;28;20018;-54
2022/12/10 05:59:58;;;;;;;;;;;;;;;;;;5074225;28;19908;-54
2022/12/10 06:02:24;;;;;;;;;;;;;;;;;;5074410;28;20365;-53
2022/12/10 06:04:50;;;;;;;;;;;;;;;;;;5074324;28;19909;-53
2022/12/10 06:07:15;;;;;;;;;;;;;;;;;;5056200;28;19909;-57
2022/12/10 06:09:41;;;;;;;;;;;;;;;;;;5074173;28;19954;-53
2022/12/10 06:12:07;;;;;;;;;;;;;;;;;;5056169;28;19909;-57
2022/12/10 06:14:33;;;;;;;;;;;;;;;;;;5074101;28;20277;-54
2022/12/10 06:16:59;;;;;;;;;;;;;;;;;;5074002;28;19962;-54
2022/12/10 06:19:25;;;;;;;;;;;;;;;;;;5072841;28;20295;-57
2022/12/10 06:21:51;;;;;;;;;;;;;;;;;;5073955;28;19905;-56
2022/12/10 06:24:17;;;;;;;;;;;;;;;;;;5056067;28;19915;-57
2022/12/10 06:26:43;;;;;;;;;;;;;;;;;;5073855;28;19983;-56
2022/12/10 06:29:09;;;;;;;;;;;;;;;;;;5073773;28;20390;-56
2022/12/10 06:31:35;;;;;;;;;;;;;;;;;;5055849;28;19911;-53
2022/12/10 06:34:01;;;;;;;;;;;;;;;;;;5073638;28;20406;-54
2022/12/10 06:36:27;;;;;;;;;;;;;;;;;;5073542;28;19909;-53
2022/12/10 06:38:52;;;;;;;;;;;;;;;;;;5073495;28;19916;-54
2022/12/10 06:41:20;;;;;;;;;;;;;;;;;;5073626;28;19915;-53
2022/12/10 06:43:46;;;;;;;;;;;;;;;;;;5073469;28;20380;-55
2022/12/10 06:46:12;;;;;;;;;;;;;;;;;;5073217;28;19916;-54
2022/12/10 06:48:38;;;;;;;;;;;;;;;;;;5073158;28;19913;-56
2022/12/10 06:51:04;;;;;;;;;;;;;;;;;;5073388;28;19915;-55
2022/12/10 06:53:29;;;;;;;;;;;;;;;;;;5055491;28;19914;-55
2022/12/10 06:55:55;;;;;;;;;;;;;;;;;;5073253;28;19909;-57
2022/12/10 06:58:21;;;;;;;;;;;;;;;;;;5073432;28;19919;-55
2022/12/10 07:00:47;;;;;;;;;;;;;;;;;;5073216;28;19952;-53
2022/12/10 07:03:13;;;;;;;;;;;;;;;;;;5073137;28;19909;-54
2022/12/10 07:05:39;;;;;;;;;;;;;;;;;;5072979;28;19909;-53
2022/12/10 07:08:05;;;;;;;;;;;;;;;;;;5073058;28;19961;-56
2022/12/10 07:10:31;;;;;;;;;;;;;;;;;;5055180;28;19957;-55
2022/12/10 07:12:57;;;;;;;;;;;;;;;;;;5073066;28;20363;-55
2022/12/10 07:15:23;;;;;;;;;;;;;;;;;;5072920;28;19913;-53
2022/12/10 07:17:49;;;;;;;;;;;;;;;;;;5072739;28;19912;-55
2022/12/10 07:20:15;;;;;;;;;;;;;;;;;;5072738;28;20000;-53
2022/12/10 07:22:41;;;;;;;;;;;;;;;;;;5072787;28;19908;-53
2022/12/10 07:25:07;;;;;;;;;;;;;;;;;;5072719;28;19996;-56
2022/12/10 07:27:33;;;;;;;;;;;;;;;;;;5072582;28;19916;-53
2022/12/10 07:29:59;;;;;;;;;;;;;;;;;;5072362;28;20369;-54
2022/12/10 07:32:25;;;;;;;;;;;;;;;;;;5072588;28;19916;-55
2022/12/10 07:34:51;;;;;;;;;;;;;;;;;;5054677;28;19908;-55
2022/12/10 07:37:16;;;;;;;;;;;;;;;;;;5072491;28;19913;-55
2022/12/10 07:39:42;;;;;;;;;;;;;;;;;;5047006;28;19925;-57
2022/12/10 07:42:08;;;;;;;;;;;;;;;;;;5062548;28;19943;-51
2022/12/10 07:44:34;;;;;;;;;;;;;;;;;;5060370;28;19917;-52
2022/12/10 07:47:00;;;;;;;;;;;;;;;;;;5057391;28;19920;-52
2022/12/10 07:49:26;;;;;;;;;;;;;;;;;;5034364;28;19908;-51
2022/12/10 07:51:52;;;;;;;;;;;;;;;;;;5052397;28;19915;-53
2022/12/10 07:54:18;;;;;;;;;;;;;;;;;;5052327;28;19915;-53
2022/12/10 07:56:44;;;;;;;;;;;;;;;;;;5052153;28;20015;-57
2022/12/10 07:59:10;;;;;;;;;;;;;;;;;;5052181;28;20026;-53
2022/12/10 08:01:36;;;;;;;;;;;;;;;;;;5052196;28;19905;-58
2022/12/10 08:04:02;;;;;;;;;;;;;;;;;;5052207;28;19915;-56
2022/12/10 08:06:28;;;;;;;;;;;;;;;;;;5052205;28;20004;-56
2022/12/10 08:08:54;;;;;;;;;;;;;;;;;;5052089;28;20580;-56
2022/12/10 08:11:20;;;;;;;;;;;;;;;;;;5052105;28;20284;-57
2022/12/10 08:13:46;;;;;;;;;;;;;;;;;;5052061;28;19909;-56
2022/12/10 08:16:11;;;;;;;;;;;;;;;;;;5051887;28;19904;-56
2022/12/10 08:18:37;;;;;;;;;;;;;;;;;;5051753;28;19913;-57
2022/12/10 08:21:03;;;;;;;;;;;;;;;;;;5052061;28;20388;-55
2022/12/10 08:23:29;;;;;;;;;;;;;;;;;;5052016;28;20274;-57
2022/12/10 08:25:55;;;;;;;;;;;;;;;;;;5051900;28;19915;-57
2022/12/10 08:28:21;;;;;;;;;;;;;;;;;;5051862;28;19916;-53
2022/12/10 08:30:47;;;;;;;;;;;;;;;;;;5052028;28;19909;-53
2022/12/10 08:33:13;;;;;;;;;;;;;;;;;;5053116;28;19909;-53
2022/12/10 08:35:39;;;;;;;;;;;;;;;;;;5053891;28;19912;-54
2022/12/10 08:38:05;;;;;;;;;;;;;;;;;;5060353;28;20494;-55
2022/12/10 08:40:31;;;;;;;;;;;;;;;;;;5051767;28;19916;-53
2022/12/10 08:42:57;;;;;;;;;;;;;;;;;;5053963;28;19916;-50
2022/12/10 08:45:22;;;;;;;;;;;;;;;;;;5056044;28;20348;-52
2022/12/10 08:47:48;;;;;;;;;;;;;;;;;;5037629;28;19971;-55
2022/12/10 08:50:14;;;;;;;;;;;;;;;;;;5055571;28;20004;-56
2022/12/10 08:52:40;;;;;;;;;;;;;;;;;;5055890;28;19916;-57
2022/12/10 08:55:06;;;;;;;;;;;;;;;;;;5055598;28;19909;-57
2022/12/10 08:57:32;;;;;;;;;;;;;;;;;;5061235;28;19916;-55
2022/12/10 08:59:58;;;;;;;;;;;;;;;;;;5075264;28;20273;-53
2022/12/10 09:02:24;;;;;;;;;;;;;;;;;;5075430;28;19908;-56
2022/12/10 09:04:50;;;;;;;;;;;;;;;;;;5075457;28;19916;-58
2022/12/10 09:07:16;;;;;;;;;;;;;;;;;;5075218;28;19904;-57
2022/12/10 09:09:42;;;;;;;;;;;;;;;;;;5075087;28;19909;-57
2022/12/10 09:12:08;;;;;;;;;;;;;;;;;;5075223;28;20416;-53
2022/12/10 09:14:34;;;;;;;;;;;;;;;;;;5066740;28;19917;-55
2022/12/10 09:17:00;;;;;;;;;;;;;;;;;;5057455;28;19917;-53
2022/12/10 09:19:26;;;;;;;;;;;;;;;;;;5066263;28;19908;-52
2022/12/10 09:21:52;;;;;;;;;;;;;;;;;;5075122;28;19908;-54
2022/12/10 09:24:17;;;;;;;;;;;;;;;;;;5074943;28;19962;-51
2022/12/10 09:26:43;;;;;;;;;;;;;;;;;;5074919;28;20249;-53
2022/12/10 09:29:09;;;;;;;;;;;;;;;;;;5068805;28;19912;-54
2022/12/10 09:31:35;;;;;;;;;;;;;;;;;;5072020;28;20390;-51
2022/12/10 09:34:01;;;;;;;;;;;;;;;;;;5074929;28;19915;-52
2022/12/10 09:36:27;;;;;;;;;;;;;;;;;;5074695;28;20057;-53
2022/12/10 09:38:53;;;;;;;;;;;;;;;;;;5074636;28;19999;-52
2022/12/10 09:41:19;;;;;;;;;;;;;;;;;;5074838;28;19916;-51
2022/12/10 09:43:46;;;;;;;;;;;;;;;;;;5074771;28;19908;-51
2022/12/10 09:46:12;;;;;;;;;;;;;;;;;;5074524;28;19917;-51
2022/12/10 09:48:37;;;;;;;;;;;;;;;;;;5074452;28;19915;-51
2022/12/10 09:51:03;;;;;;;;;;;;;;;;;;5074595;28;19915;-50
2022/12/10 09:53:29;;;;;;;;;;;;;;;;;;5074460;28;19912;-54
2022/12/10 09:55:55;;;;;;;;;;;;;;;;;;5056471;28;20008;-52
2022/12/10 09:58:21;;;;;;;;;;;;;;;;;;5073763;28;20002;-51
2022/12/10 10:00:47;;;;;;;;;;;;;;;;;;5062862;28;19923;-51
2022/12/10 10:03:13;;;;;;;;;;;;;;;;;;5074334;28;19915;-52
2022/12/10 10:05:39;;;;;;;;;;;;;;;;;;5070931;28;19912;-51
2022/12/10 10:08:05;;;;;;;;;;;;;;;;;;5059974;28;19912;-55
2022/12/10 10:10:31;;;;;;;;;;;;;;;;;;5054087;28;19936;-51
2022/12/10 10:12:57;;;;;;;;;;;;;;;;;;5054035;28;19995;-51
2022/12/10 10:15:23;;;;;;;;;;;;;;;;;;5054095;28;19913;-53
2022/12/10 10:17:49;;;;;;;;;;;;;;;;;;5056394;28;20288;-51
2022/12/10 10:20:15;;;;;;;;;;;;;;;;;;5053789;28;19909;-50
2022/12/10 10:22:41;;;;;;;;;;;;;;;;;;5052458;28;19943;-53
2022/12/10 10:25:07;;;;;;;;;;;;;;;;;;5053535;28;20107;-51
2022/12/10 10:27:33;;;;;;;;;;;;;;;;;;5053615;28;19916;-51
2022/12/10 10:29:59;;;;;;;;;;;;;;;;;;5053634;28;20286;-50
2022/12/10 10:32:25;;;;;;;;;;;;;;;;;;5053755;28;20362;-51
2022/12/10 10:34:51;;;;;;;;;;;;;;;;;;5053717;28;19908;-51
2022/12/10 10:37:17;;;;;;;;;;;;;;;;;;5053356;28;19913;-50
2022/12/10 10:39:42;;;;;;;;;;;;;;;;;;5035659;28;19915;-51
2022/12/10 10:42:08;;;;;;;;;;;;;;;;;;5053481;28;20274;-50
2022/12/10 10:44:34;;;;;;;;;;;;;;;;;;5053478;28;19919;-52
2022/12/10 10:47:00;;;;;;;;;;;;;;;;;;5053180;28;19970;-51
2022/12/10 10:49:26;;;;;;;;;;;;;;;;;;5053241;28;19909;-51
2022/12/10 10:51:53;;;;;;;;;;;;;;;;;;5053223;28;19905;-54
2022/12/10 10:54:19;;;;;;;;;;;;;;;;;;5053297;28;19909;-53
2022/12/10 10:56:45;;;;;;;;;;;;;;;;;;5053186;28;19912;-51
2022/12/10 10:59:11;;;;;;;;;;;;;;;;;;5053123;28;20383;-51
2022/12/10 11:01:37;;;;;;;;;;;;;;;;;;5053192;28;20327;-50
2022/12/10 11:04:03;;;;;;;;;;;;;;;;;;5053138;28;19997;-51
2022/12/10 11:06:29;;;;;;;;;;;;;;;;;;5052386;28;19992;-52
2022/12/10 11:08:55;;;;;;;;;;;;;;;;;;5053038;28;20011;-50
2022/12/10 11:11:21;;;;;;;;;;;;;;;;;;5052903;28;19915;-52
2022/12/10 11:13:47;;;;;;;;;;;;;;;;;;5052909;28;20003;-53
2022/12/10 11:16:12;;;;;;;;;;;;;;;;;;5052838;28;19955;-54
2022/12/10 11:18:38;;;;;;;;;;;;;;;;;;5052548;28;19955;-54
2022/12/10 11:21:04;;;;;;;;;;;;;;;;;;5052698;28;19966;-54
2022/12/10 11:23:30;;;;;;;;;;;;;;;;;;5052758;28;19963;-51
2022/12/10 11:25:57;;;;;;;;;;;;;;;;;;5052749;28;19985;-53
2022/12/10 11:28:23;;;;;;;;;;;;;;;;;;5052565;28;19912;-51
2022/12/10 11:30:49;;;;;;;;;;;;;;;;;;5052631;28;19915;-51
2022/12/10 11:33:15;;;;;;;;;;;;;;;;;;5052503;28;19908;-50
2022/12/10 11:35:42;;;;;;;;;;;;;;;;;;5052397;28;20336;-51
2022/12/10 11:38:08;;;;;;;;;;;;;;;;;;5052258;28;19912;-53
2022/12/10 11:40:34;;;;;;;;;;;;;;;;;;5052364;28;20400;-53
2022/12/10 11:43:00;;;;;;;;;;;;;;;;;;5052551;28;19916;-51
2022/12/10 11:45:26;;;;;;;;;;;;;;;;;;5052323;28;19909;-51
2022/12/10 11:47:52;;;;;;;;;;;;;;;;;;5052937;28;19913;-50
2022/12/10 11:50:18;;;;;;;;;;;;;;;;;;5052264;28;20051;-53
2022/12/10 11:52:44;;;;;;;;;;;;;;;;;;5052347;28;19913;-53
2022/12/10 11:55:09;;;;;;;;;;;;;;;;;;5052137;28;20373;-48
2022/12/10 11:57:35;;;;;;;;;;;;;;;;;;5051756;28;19913;-50
2022/12/10 12:00:01;;;;;;;;;;;;;;;;;;5051934;28;19958;-52
2022/12/10 12:02:27;;;;;;;;;;;;;;;;;;5052206;28;19954;-52
2022/12/10 12:04:53;;;;;;;;;;;;;;;;;;5034382;28;20342;-53
2022/12/10 12:07:19;;;;;;;;;;;;;;;;;;5052486;28;19954;-50
2022/12/10 12:09:45;;;;;;;;;;;;;;;;;;5052062;28;20383;-50
2022/12/10 12:12:11;;;;;;;;;;;;;;;;;;5051912;28;19912;-53
2022/12/10 12:14:37;;;;;;;;;;;;;;;;;;5065395;28;19913;-50
2022/12/10 12:17:03;;;;;;;;;;;;;;;;;;5064042;28;19969;-50
2022/12/10 12:19:29;;;;;;;;;;;;;;;;;;5057739;28;19916;-51
2022/12/10 12:21:55;;;;;;;;;;;;;;;;;;5071239;28;20327;-50
2022/12/10 12:24:21;;;;;;;;;;;;;;;;;;5071214;28;19913;-53
2022/12/10 12:26:47;;;;;;;;;;;;;;;;;;5069219;28;19965;-50
2022/12/10 12:29:13;;;;;;;;;;;;;;;;;;5071702;28;20399;-50
2022/12/10 12:31:39;;;;;;;;;;;;;;;;;;5050835;28;19939;-53
2022/12/10 12:34:05;;;;;;;;;;;;;;;;;;5071258;28;19964;-51
2022/12/10 12:36:31;;;;;;;;;;;;;;;;;;5070880;28;19920;-51
2022/12/10 12:38:59;;;;;;;;;;;;;;;;;;5043539;28;20297;-51
2022/12/10 12:41:25;;;;;;;;;;;;;;;;;;5053611;28;19916;-51
2022/12/10 12:43:51;;;;;;;;;;;;;;;;;;5071921;28;19916;-51
2022/12/10 12:46:17;;;;;;;;;;;;;;;;;;5068687;28;19924;-51
2022/12/10 12:48:43;;;;;;;;;;;;;;;;;;5068188;28;20380;-51
2022/12/10 12:51:09;;;;;;;;;;;;;;;;;;5068487;28;19963;-51
2022/12/10 12:53:35;;;;;;;;;;;;;;;;;;5070146;28;20006;-51
2022/12/10 12:56:02;;;;;;;;;;;;;;;;;;5066192;28;20016;-51
2022/12/10 12:58:28;;;;;;;;;;;;;;;;;;5065002;28;19930;-53
2022/12/10 13:00:54;;;;;;;;;;;;;;;;;;5071234;28;19913;-50
2022/12/10 13:03:20;;;;;;;;;;;;;;;;;;5071216;28;20011;-51
2022/12/10 13:05:46;;;;;;;;;;;;;;;;;;5071151;28;20373;-51
2022/12/10 13:08:12;;;;;;;;;;;;;;;;;;5063391;28;19913;-50
2022/12/10 13:10:38;;;;;;;;;;;;;;;;;;5061197;28;20293;-52
2022/12/10 13:13:04;;;;;;;;;;;;;;;;;;5044970;28;19912;-50
2022/12/10 13:15:30;;;;;;;;;;;;;;;;;;5062408;28;20372;-50
2022/12/10 13:17:56;;;;;;;;;;;;;;;;;;5061648;28;19921;-50
2022/12/10 13:20:22;;;;;;;;;;;;;;;;;;5068493;28;19919;-50
2022/12/10 13:22:47;;;;;;;;;;;;;;;;;;5067512;28;19951;-50
2022/12/10 13:25:14;;;;;;;;;;;;;;;;;;5062817;28;19909;-51
2022/12/10 13:27:41;;;;;;;;;;;;;;;;;;5071162;28;19961;-50
2022/12/10 13:30:07;;;;;;;;;;;;;;;;;;5073134;28;19919;-52
2022/12/10 13:32:33;;;;;;;;;;;;;;;;;;5067645;28;19913;-54
2022/12/10 13:34:59;;;;;;;;;;;;;;;;;;5074859;28;19915;-53
2022/12/10 13:37:25;;;;;;;;;;;;;;;;;;5074549;28;20308;-50
2022/12/10 13:39:51;;;;;;;;;;;;;;;;;;5074271;28;20296;-54
2022/12/10 13:45:01;;;;;;;;;;;;;;;;;;5074715;28;20053;-51
2022/12/10 13:47:28;;;;;;;;;;;;;;;;;;5073757;28;19962;-52
2022/12/10 13:49:54;;;;;;;;;;;;;;;;;;5074108;28;19912;-52
2022/12/10 13:52:19;;;;;;;;;;;;;;;;;;5056432;28;19920;-51
2022/12/10 13:54:45;;;;;;;;;;;;;;;;;;5074497;28;19909;-53
2022/12/10 13:57:11;;;;;;;;;;;;;;;;;;5074314;28;20011;-53
2022/12/10 13:59:37;;;;;;;;;;;;;;;;;;5056046;28;20369;-52
2022/12/10 14:02:03;;;;;;;;;;;;;;;;;;5073951;28;19913;-54
2022/12/10 14:04:29;;;;;;;;;;;;;;;;;;5073841;28;19920;-50
2022/12/10 14:06:55;;;;;;;;;;;;;;;;;;5073998;28;19916;-50
2022/12/10 14:09:21;;;;;;;;;;;;;;;;;;5073549;28;19920;-51
2022/12/10 14:11:47;;;;;;;;;;;;;;;;;;5073823;28;20357;-52
2022/12/10 14:14:13;;;;;;;;;;;;;;;;;;5073581;28;19917;-51
2022/12/10 14:16:39;;;;;;;;;;;;;;;;;;5070392;28;19913;-50
2022/12/10 14:19:05;;;;;;;;;;;;;;;;;;5073471;28;19916;-51
2022/12/10 14:21:30;;;;;;;;;;;;;;;;;;5073933;28;19908;-50
2022/12/10 14:23:57;;;;;;;;;;;;;;;;;;5073959;28;19995;-51
2022/12/10 14:26:23;;;;;;;;;;;;;;;;;;5055558;28;20013;-53
2022/12/10 14:28:49;;;;;;;;;;;;;;;;;;5073495;28;20397;-51
2022/12/10 14:31:15;;;;;;;;;;;;;;;;;;5065932;28;19970;-52
2022/12/10 14:33:41;;;;;;;;;;;;;;;;;;5054667;28;19928;-51
2022/12/10 14:36:07;;;;;;;;;;;;;;;;;;5073663;28;20349;-51
2022/12/10 14:38:33;;;;;;;;;;;;;;;;;;5061118;28;20274;-52
2022/12/10 14:40:58;;;;;;;;;;;;;;;;;;5072730;28;20399;-51
2022/12/10 14:43:24;;;;;;;;;;;;;;;;;;5073325;28;20284;-54
2022/12/10 14:45:53;;;;;;;;;;;;;;;;;;5073048;28;19916;-54
2022/12/10 14:48:19;;;;;;;;;;;;;;;;;;5064153;28;20411;-52
2022/12/10 14:50:45;;;;;;;;;;;;;;;;;;5072156;28;20012;-52
2022/12/10 14:53:11;;;;;;;;;;;;;;;;;;5048376;28;19952;-52
2022/12/10 14:55:37;;;;;;;;;;;;;;;;;;5049213;28;19909;-52
2022/12/10 14:58:03;;;;;;;;;;;;;;;;;;5061740;28;19931;-51
2022/12/10 15:00:29;;;;;;;;;;;;;;;;;;5056145;28;20328;-52
2022/12/10 15:02:55;;;;;;;;;;;;;;;;;;5073019;28;19912;-52
2022/12/10 15:05:25;;;;;;;;;;;7.00;96.90;;;;;;5073169;28;19999;-52
2022/12/10 15:07:54;;;;;;;;;;;7.10;97.00;;;;;;5063201;28;20295;-54
2022/12/10 15:10:22;;;;;;;;;;;7.00;97.00;;;;;;5061809;28;19908;-51
2022/12/10 15:12:48;;;;;;;;;;;;;;;;;;5063645;28;19915;-52
2022/12/10 15:15:14;;;;;;;;;;;;;;;;;;5063723;28;20379;-51
2022/12/10 15:17:40;;;;;;;;;;;;;;;;;;5064748;28;19916;-52
2022/12/10 15:20:06;;;;;;;;;;;;;;;;;;5068050;28;19955;-50
2022/12/10 15:22:32;;;;;;;;;;;;;;;;;;5066389;28;19955;-53
2022/12/10 15:24:58;;;;;;;;;;;;;;;;;;5072872;28;19944;-51
2022/12/10 15:27:24;;;;;;;;;;;;;;;;;;5064749;28;20269;-50
2022/12/10 15:29:50;;;;;;;;;;;;;;;;;;5053874;28;19912;-51
2022/12/10 15:32:17;;;;;;;;;;;;;;;;;;5053880;28;19966;-51
2022/12/10 15:34:43;;;;;;;;;;;;;;;;;;5072460;28;20011;-51
2022/12/10 15:37:13;;;;;;;;;;;;;;;;;;5070718;28;20003;-51
2022/12/10 15:39:39;;;;;;;;;;;;;;;;;;5054061;28;19920;-50
2022/12/10 15:42:05;;;;;;;;;;;;;;;;;;5072030;28;19924;-54
2022/12/10 15:44:32;;;;;;;;;;;;;;;;;;5072422;28;19912;-53
2022/12/10 15:46:58;;;;;;;;;;;;;;;;;;5071541;28;19916;-52
2022/12/10 15:49:24;;;;;;;;;;;;;;;;;;5045965;28;19919;-52
2022/12/10 15:51:50;;;;;;;;;;;;;;;;;;5057112;28;19913;-51
2022/12/10 15:54:15;;;;;;;;;;;;;;;;;;5066419;28;19916;-51
2022/12/10 15:56:41;;;;;;;;;;;;;;;;;;5054399;28;19908;-54
2022/12/10 15:59:07;;;;;;;;;;;;;;;;;;5060645;28;19912;-54
2022/12/10 16:01:33;;;;;;;;;;;;;;;;;;5070002;28;19999;-53
2022/12/10 16:03:59;;;;;;;;;;;;;;;;;;5070283;28;20297;-50
2022/12/10 16:06:25;;;;;;;;;;;;;;;;;;5070050;28;19973;-51
2022/12/10 16:08:51;;;;;;;;;;;;;;;;;;5047009;28;19920;-54
2022/12/10 16:11:17;;;;;;;;;;;;;;;;;;5072201;28;20022;-51
2022/12/10 16:13:43;;;;;;;;;;;;;;;;;;5061804;28;20644;-51
2022/12/10 16:16:09;;;;;;;;;;;;;;;;;;5053763;28;19913;-51
2022/12/10 16:18:36;;;;;;;;;;;;;;;;;;5053189;28;19920;-51
2022/12/10 16:21:02;;;;;;;;;;;;;;;;;;5053825;28;19909;-53
2022/12/10 16:23:28;;;;;;;;;;;;;;;;;;5071438;28;20331;-53
2022/12/10 16:25:54;;;;;;;;;;;;;;;;;;5071569;28;20274;-50
2022/12/10 16:28:20;;;;;;;;;;;;;;;;;;5071088;28;20007;-53
2022/12/10 16:30:46;;;;;;;;;;;;;;;;;;5071911;28;19992;-51
2022/12/10 16:33:12;;;;;;;;;;;;;;;;;;5052512;28;20057;-54
2022/12/10 16:35:38;;;;;;;;;;;;;;;;;;5067784;28;19912;-54
2022/12/10 16:38:04;;;;;;;;;;;;;;;;;;5053113;28;19916;-51
2022/12/10 16:40:30;;;;;;;;;;;;;;;;;;5066982;28;20288;-51
2022/12/10 16:42:56;;;;;;;;;;;;;;;;;;5071038;28;20007;-51
2022/12/10 16:45:22;;;;;;;;;;;;;;;;;;5069286;28;20024;-51
2022/12/10 16:47:48;;;;;;;;;;;;;;;;;;5060170;28;20321;-51